sensor_id;sensor_type;location;lat;lon;timestamp;P1;durP1;ratioP1;P2;durP2;ratioP2
727;SDS011;347;48.780;9.158;2022-08-20T00:00:54;11.23;;;10.83;;
727;SDS011;347;48.780;9.158;2022-08-20T00:03:21;10.70;;;10.37;;
727;SDS011;347;48.780;9.158;2022-08-20T00:06:00;11.17;;;10.67;;
727;SDS011;347;48.780;9.158;2022-08-20T00:08:30;11.73;;;11.23;;
727;SDS011;347;48.780;9.158;2022-08-20T00:10:56;11.60;;;11.20;;
727;SDS011;347;48.780;9.158;2022-08-20T00:13:31;10.90;;;10.60;;
727;SDS011;347;48.780;9.158;2022-08-20T00:16:03;11.60;;;11.20;;
727;SDS011;347;48.780;9.158;2022-08-20T00:18:29;11.20;;;10.80;;
727;SDS011;347;48.780;9.158;2022-08-20T00:20:55;12.07;;;11.67;;
727;SDS011;347;48.780;9.158;2022-08-20T00:23:22;11.90;;;11.50;;
727;SDS011;347;48.780;9.158;2022-08-20T00:25:49;11.83;;;11.43;;
727;SDS011;347;48.780;9.158;2022-08-20T00:28:15;11.50;;;11.20;;
727;SDS011;347;48.780;9.158;2022-08-20T00:30:42;12.30;;;11.60;;
727;SDS011;347;48.780;9.158;2022-08-20T00:33:12;11.87;;;11.50;;
727;SDS011;347;48.780;9.158;2022-08-20T00:35:42;11.70;;;11.40;;
727;SDS011;347;48.780;9.158;2022-08-20T00:38:10;11.97;;;11.57;;
727;SDS011;347;48.780;9.158;2022-08-20T00:40:40;11.97;;;11.57;;
727;SDS011;347;48.780;9.158;2022-08-20T00:43:23;12.00;;;11.60;;
727;SDS011;347;48.780;9.158;2022-08-20T00:46:09;11.47;;;11.10;;
727;SDS011;347;48.780;9.158;2022-08-20T00:48:47;11.20;;;10.90;;
727;SDS011;347;48.780;9.158;2022-08-20T00:53:51;12.13;;;11.73;;
727;SDS011;347;48.780;9.158;2022-08-20T00:56:18;11.23;;;10.93;;
727;SDS011;347;48.780;9.158;2022-08-20T00:58:44;11.57;;;11.07;;
727;SDS011;347;48.780;9.158;2022-08-20T01:01:11;11.80;;;11.40;;
727;SDS011;347;48.780;9.158;2022-08-20T01:03:39;11.87;;;11.47;;
727;SDS011;347;48.780;9.158;2022-08-20T01:06:06;11.80;;;11.40;;
727;SDS011;347;48.780;9.158;2022-08-20T01:08:35;11.60;;;11.30;;
727;SDS011;347;48.780;9.158;2022-08-20T01:11:02;11.37;;;11.07;;
727;SDS011;347;48.780;9.158;2022-08-20T01:13:41;11.57;;;11.23;;
727;SDS011;347;48.780;9.158;2022-08-20T01:16:11;11.50;;;11.10;;
727;SDS011;347;48.780;9.158;2022-08-20T01:18:43;11.50;;;11.10;;
727;SDS011;347;48.780;9.158;2022-08-20T01:21:11;11.53;;;11.03;;
727;SDS011;347;48.780;9.158;2022-08-20T01:26:10;11.20;;;10.90;;
727;SDS011;347;48.780;9.158;2022-08-20T01:31:32;11.20;;;10.90;;
727;SDS011;347;48.780;9.158;2022-08-20T01:34:00;11.57;;;11.20;;
727;SDS011;347;48.780;9.158;2022-08-20T01:36:47;11.87;;;11.27;;
727;SDS011;347;48.780;9.158;2022-08-20T01:39:19;11.20;;;10.80;;
727;SDS011;347;48.780;9.158;2022-08-20T01:41:53;12.10;;;11.60;;
727;SDS011;347;48.780;9.158;2022-08-20T01:44:25;11.50;;;11.10;;
727;SDS011;347;48.780;9.158;2022-08-20T01:46:52;11.30;;;11.00;;
727;SDS011;347;48.780;9.158;2022-08-20T01:49:26;11.40;;;11.10;;
727;SDS011;347;48.780;9.158;2022-08-20T01:51:55;11.90;;;11.50;;
727;SDS011;347;48.780;9.158;2022-08-20T01:54:24;11.73;;;11.33;;
727;SDS011;347;48.780;9.158;2022-08-20T01:59:30;11.70;;;11.30;;
727;SDS011;347;48.780;9.158;2022-08-20T02:01:57;11.73;;;11.33;;
727;SDS011;347;48.780;9.158;2022-08-20T02:04:24;12.13;;;11.73;;
727;SDS011;347;48.780;9.158;2022-08-20T02:06:52;12.50;;;12.00;;
727;SDS011;347;48.780;9.158;2022-08-20T02:09:23;12.20;;;11.60;;
727;SDS011;347;48.780;9.158;2022-08-20T02:11:51;11.80;;;11.40;;
727;SDS011;347;48.780;9.158;2022-08-20T02:14:17;12.17;;;11.77;;
727;SDS011;347;48.780;9.158;2022-08-20T02:16:43;11.80;;;11.40;;
727;SDS011;347;48.780;9.158;2022-08-20T02:19:15;11.30;;;10.90;;
727;SDS011;347;48.780;9.158;2022-08-20T02:21:50;12.10;;;11.30;;
727;SDS011;347;48.780;9.158;2022-08-20T02:24:19;11.03;;;10.70;;
727;SDS011;347;48.780;9.158;2022-08-20T02:26:45;11.50;;;11.10;;
727;SDS011;347;48.780;9.158;2022-08-20T02:29:11;12.13;;;11.73;;
727;SDS011;347;48.780;9.158;2022-08-20T02:31:38;11.80;;;11.40;;
727;SDS011;347;48.780;9.158;2022-08-20T02:34:08;12.67;;;12.17;;
727;SDS011;347;48.780;9.158;2022-08-20T02:36:35;12.23;;;11.80;;
727;SDS011;347;48.780;9.158;2022-08-20T02:39:03;12.13;;;11.63;;
727;SDS011;347;48.780;9.158;2022-08-20T02:41:31;12.03;;;11.63;;
727;SDS011;347;48.780;9.158;2022-08-20T02:43:57;11.10;;;10.80;;
727;SDS011;347;48.780;9.158;2022-08-20T02:46:22;12.70;;;12.20;;
727;SDS011;347;48.780;9.158;2022-08-20T02:48:48;11.97;;;11.47;;
727;SDS011;347;48.780;9.158;2022-08-20T02:51:13;12.60;;;12.20;;
727;SDS011;347;48.780;9.158;2022-08-20T02:53:39;11.70;;;11.40;;
727;SDS011;347;48.780;9.158;2022-08-20T02:56:06;12.20;;;11.80;;
727;SDS011;347;48.780;9.158;2022-08-20T02:58:33;12.00;;;11.60;;
727;SDS011;347;48.780;9.158;2022-08-20T03:01:00;12.27;;;11.87;;
727;SDS011;347;48.780;9.158;2022-08-20T03:03:27;12.00;;;11.60;;
727;SDS011;347;48.780;9.158;2022-08-20T03:05:54;12.20;;;11.80;;
727;SDS011;347;48.780;9.158;2022-08-20T03:08:21;12.00;;;11.60;;
727;SDS011;347;48.780;9.158;2022-08-20T03:10:48;11.33;;;10.93;;
727;SDS011;347;48.780;9.158;2022-08-20T03:13:14;12.70;;;12.17;;
727;SDS011;347;48.780;9.158;2022-08-20T03:15:42;12.20;;;11.80;;
727;SDS011;347;48.780;9.158;2022-08-20T03:18:10;12.03;;;11.53;;
727;SDS011;347;48.780;9.158;2022-08-20T03:20:37;12.70;;;12.10;;
727;SDS011;347;48.780;9.158;2022-08-20T03:23:03;12.17;;;11.77;;
727;SDS011;347;48.780;9.158;2022-08-20T03:25:29;12.57;;;12.17;;
727;SDS011;347;48.780;9.158;2022-08-20T03:27:56;12.20;;;11.80;;
727;SDS011;347;48.780;9.158;2022-08-20T03:30:22;12.20;;;11.80;;
727;SDS011;347;48.780;9.158;2022-08-20T03:32:50;12.63;;;12.23;;
727;SDS011;347;48.780;9.158;2022-08-20T03:35:17;12.93;;;12.30;;
727;SDS011;347;48.780;9.158;2022-08-20T03:37:44;12.37;;;11.97;;
727;SDS011;347;48.780;9.158;2022-08-20T03:40:11;12.90;;;12.43;;
727;SDS011;347;48.780;9.158;2022-08-20T03:42:44;12.20;;;11.80;;
727;SDS011;347;48.780;9.158;2022-08-20T03:45:09;11.90;;;11.50;;
727;SDS011;347;48.780;9.158;2022-08-20T03:47:36;12.27;;;11.87;;
727;SDS011;347;48.780;9.158;2022-08-20T03:50:04;13.13;;;12.30;;
727;SDS011;347;48.780;9.158;2022-08-20T03:52:31;12.40;;;12.00;;
727;SDS011;347;48.780;9.158;2022-08-20T03:54:57;13.13;;;12.63;;
727;SDS011;347;48.780;9.158;2022-08-20T03:57:22;12.77;;;12.37;;
727;SDS011;347;48.780;9.158;2022-08-20T03:59:48;12.27;;;11.87;;
727;SDS011;347;48.780;9.158;2022-08-20T04:02:15;12.97;;;12.57;;
727;SDS011;347;48.780;9.158;2022-08-20T04:04:41;12.80;;;12.40;;
727;SDS011;347;48.780;9.158;2022-08-20T04:07:07;13.33;;;12.83;;
727;SDS011;347;48.780;9.158;2022-08-20T04:09:35;13.00;;;12.60;;
727;SDS011;347;48.780;9.158;2022-08-20T04:12:02;13.93;;;13.33;;
727;SDS011;347;48.780;9.158;2022-08-20T04:14:28;13.67;;;13.17;;
727;SDS011;347;48.780;9.158;2022-08-20T04:16:53;13.87;;;13.37;;
727;SDS011;347;48.780;9.158;2022-08-20T04:19:19;14.37;;;13.87;;
727;SDS011;347;48.780;9.158;2022-08-20T04:21:45;14.00;;;13.50;;
727;SDS011;347;48.780;9.158;2022-08-20T04:24:12;14.33;;;13.83;;
727;SDS011;347;48.780;9.158;2022-08-20T04:26:39;14.13;;;13.53;;
727;SDS011;347;48.780;9.158;2022-08-20T04:29:06;13.93;;;13.43;;
727;SDS011;347;48.780;9.158;2022-08-20T04:31:32;14.13;;;13.63;;
727;SDS011;347;48.780;9.158;2022-08-20T04:34:02;13.27;;;12.87;;
727;SDS011;347;48.780;9.158;2022-08-20T04:36:31;14.60;;;14.10;;
727;SDS011;347;48.780;9.158;2022-08-20T04:38:59;14.43;;;13.87;;
727;SDS011;347;48.780;9.158;2022-08-20T04:41:24;14.07;;;13.57;;
727;SDS011;347;48.780;9.158;2022-08-20T04:43:51;13.43;;;12.93;;
727;SDS011;347;48.780;9.158;2022-08-20T04:46:18;13.63;;;13.00;;
727;SDS011;347;48.780;9.158;2022-08-20T04:48:44;13.73;;;13.13;;
727;SDS011;347;48.780;9.158;2022-08-20T04:51:10;13.80;;;13.30;;
727;SDS011;347;48.780;9.158;2022-08-20T04:53:39;13.80;;;13.30;;
727;SDS011;347;48.780;9.158;2022-08-20T04:56:05;15.00;;;14.20;;
727;SDS011;347;48.780;9.158;2022-08-20T04:58:35;14.50;;;14.00;;
727;SDS011;347;48.780;9.158;2022-08-20T05:01:09;14.83;;;14.23;;
727;SDS011;347;48.780;9.158;2022-08-20T05:03:36;15.30;;;14.50;;
727;SDS011;347;48.780;9.158;2022-08-20T05:06:07;15.13;;;14.63;;
727;SDS011;347;48.780;9.158;2022-08-20T05:08:34;15.00;;;14.43;;
727;SDS011;347;48.780;9.158;2022-08-20T05:11:00;15.50;;;14.90;;
727;SDS011;347;48.780;9.158;2022-08-20T05:13:26;16.47;;;15.10;;
727;SDS011;347;48.780;9.158;2022-08-20T05:15:52;15.23;;;14.63;;
727;SDS011;347;48.780;9.158;2022-08-20T05:18:20;15.30;;;14.70;;
727;SDS011;347;48.780;9.158;2022-08-20T05:20:47;14.97;;;14.33;;
727;SDS011;347;48.780;9.158;2022-08-20T05:23:14;15.60;;;14.90;;
727;SDS011;347;48.780;9.158;2022-08-20T05:25:41;15.00;;;14.40;;
727;SDS011;347;48.780;9.158;2022-08-20T05:28:15;15.50;;;14.90;;
727;SDS011;347;48.780;9.158;2022-08-20T05:30:54;14.67;;;14.07;;
727;SDS011;347;48.780;9.158;2022-08-20T05:33:21;13.67;;;13.17;;
727;SDS011;347;48.780;9.158;2022-08-20T05:35:47;15.00;;;14.40;;
727;SDS011;347;48.780;9.158;2022-08-20T05:38:15;14.53;;;14.03;;
727;SDS011;347;48.780;9.158;2022-08-20T05:40:44;14.67;;;13.97;;
727;SDS011;347;48.780;9.158;2022-08-20T05:43:11;15.37;;;14.67;;
727;SDS011;347;48.780;9.158;2022-08-20T05:45:37;15.77;;;15.17;;
727;SDS011;347;48.780;9.158;2022-08-20T05:48:09;15.10;;;14.60;;
727;SDS011;347;48.780;9.158;2022-08-20T05:50:37;15.50;;;14.90;;
727;SDS011;347;48.780;9.158;2022-08-20T05:53:03;15.03;;;14.03;;
727;SDS011;347;48.780;9.158;2022-08-20T05:55:30;16.13;;;15.13;;
727;SDS011;347;48.780;9.158;2022-08-20T05:57:56;15.40;;;14.80;;
727;SDS011;347;48.780;9.158;2022-08-20T06:00:23;15.70;;;15.00;;
727;SDS011;347;48.780;9.158;2022-08-20T06:02:49;15.47;;;14.87;;
727;SDS011;347;48.780;9.158;2022-08-20T06:05:33;16.03;;;15.43;;
727;SDS011;347;48.780;9.158;2022-08-20T06:07:58;15.83;;;15.07;;
727;SDS011;347;48.780;9.158;2022-08-20T06:10:24;16.00;;;15.33;;
727;SDS011;347;48.780;9.158;2022-08-20T06:12:50;15.90;;;15.30;;
727;SDS011;347;48.780;9.158;2022-08-20T06:15:17;15.07;;;14.47;;
727;SDS011;347;48.780;9.158;2022-08-20T06:17:43;15.00;;;14.50;;
727;SDS011;347;48.780;9.158;2022-08-20T06:20:09;16.00;;;15.20;;
727;SDS011;347;48.780;9.158;2022-08-20T06:22:35;15.40;;;14.80;;
727;SDS011;347;48.780;9.158;2022-08-20T06:25:02;16.23;;;15.53;;
727;SDS011;347;48.780;9.158;2022-08-20T06:27:29;15.20;;;14.60;;
727;SDS011;347;48.780;9.158;2022-08-20T06:29:55;15.57;;;14.97;;
727;SDS011;347;48.780;9.158;2022-08-20T06:32:20;15.00;;;14.50;;
727;SDS011;347;48.780;9.158;2022-08-20T06:34:48;15.10;;;14.50;;
727;SDS011;347;48.780;9.158;2022-08-20T06:37:15;15.53;;;14.93;;
727;SDS011;347;48.780;9.158;2022-08-20T06:39:44;15.63;;;14.93;;
727;SDS011;347;48.780;9.158;2022-08-20T06:42:10;15.37;;;14.67;;
727;SDS011;347;48.780;9.158;2022-08-20T06:44:36;15.63;;;14.93;;
727;SDS011;347;48.780;9.158;2022-08-20T06:47:02;15.20;;;14.60;;
727;SDS011;347;48.780;9.158;2022-08-20T06:49:29;15.00;;;14.40;;
727;SDS011;347;48.780;9.158;2022-08-20T06:51:57;15.87;;;15.20;;
727;SDS011;347;48.780;9.158;2022-08-20T06:54:23;15.90;;;15.20;;
727;SDS011;347;48.780;9.158;2022-08-20T06:56:48;15.17;;;14.67;;
727;SDS011;347;48.780;9.158;2022-08-20T06:59:14;14.97;;;14.37;;
727;SDS011;347;48.780;9.158;2022-08-20T07:01:39;15.33;;;14.73;;
727;SDS011;347;48.780;9.158;2022-08-20T07:04:05;14.90;;;14.30;;
727;SDS011;347;48.780;9.158;2022-08-20T07:06:32;15.13;;;14.40;;
727;SDS011;347;48.780;9.158;2022-08-20T07:08:57;15.87;;;15.17;;
727;SDS011;347;48.780;9.158;2022-08-20T07:11:23;15.07;;;14.47;;
727;SDS011;347;48.780;9.158;2022-08-20T07:13:49;15.50;;;14.90;;
727;SDS011;347;48.780;9.158;2022-08-20T07:16:15;15.07;;;14.47;;
727;SDS011;347;48.780;9.158;2022-08-20T07:18:40;14.70;;;14.20;;
727;SDS011;347;48.780;9.158;2022-08-20T07:21:06;15.83;;;14.93;;
727;SDS011;347;48.780;9.158;2022-08-20T07:23:32;15.70;;;15.10;;
727;SDS011;347;48.780;9.158;2022-08-20T07:25:57;15.43;;;14.73;;
727;SDS011;347;48.780;9.158;2022-08-20T07:28:24;15.33;;;14.73;;
727;SDS011;347;48.780;9.158;2022-08-20T07:30:54;16.23;;;15.50;;
727;SDS011;347;48.780;9.158;2022-08-20T07:33:39;15.87;;;15.17;;
727;SDS011;347;48.780;9.158;2022-08-20T07:36:05;16.30;;;15.50;;
727;SDS011;347;48.780;9.158;2022-08-20T07:38:33;14.60;;;14.00;;
727;SDS011;347;48.780;9.158;2022-08-20T07:41:01;15.67;;;15.07;;
727;SDS011;347;48.780;9.158;2022-08-20T07:43:31;16.43;;;15.30;;
727;SDS011;347;48.780;9.158;2022-08-20T07:45:58;15.37;;;14.70;;
727;SDS011;347;48.780;9.158;2022-08-20T07:48:25;15.43;;;14.80;;
727;SDS011;347;48.780;9.158;2022-08-20T07:50:54;15.30;;;14.70;;
727;SDS011;347;48.780;9.158;2022-08-20T07:53:25;15.13;;;14.53;;
727;SDS011;347;48.780;9.158;2022-08-20T07:55:51;15.10;;;14.40;;
727;SDS011;347;48.780;9.158;2022-08-20T07:58:18;15.00;;;14.50;;
727;SDS011;347;48.780;9.158;2022-08-20T08:00:46;16.00;;;15.30;;
727;SDS011;347;48.780;9.158;2022-08-20T08:03:12;15.40;;;14.70;;
727;SDS011;347;48.780;9.158;2022-08-20T08:05:38;15.10;;;14.50;;
727;SDS011;347;48.780;9.158;2022-08-20T08:08:07;15.60;;;14.80;;
727;SDS011;347;48.780;9.158;2022-08-20T08:10:35;15.00;;;14.30;;
727;SDS011;347;48.780;9.158;2022-08-20T08:13:02;14.23;;;13.73;;
727;SDS011;347;48.780;9.158;2022-08-20T08:15:31;14.73;;;14.20;;
727;SDS011;347;48.780;9.158;2022-08-20T08:18:03;14.90;;;14.30;;
727;SDS011;347;48.780;9.158;2022-08-20T08:20:36;14.67;;;14.07;;
727;SDS011;347;48.780;9.158;2022-08-20T08:23:06;14.60;;;14.00;;
727;SDS011;347;48.780;9.158;2022-08-20T08:25:36;15.37;;;14.47;;
727;SDS011;347;48.780;9.158;2022-08-20T08:28:03;14.47;;;13.97;;
727;SDS011;347;48.780;9.158;2022-08-20T08:30:29;15.20;;;14.60;;
727;SDS011;347;48.780;9.158;2022-08-20T08:32:55;15.00;;;14.40;;
727;SDS011;347;48.780;9.158;2022-08-20T08:35:39;14.77;;;14.27;;
727;SDS011;347;48.780;9.158;2022-08-20T08:38:10;15.27;;;14.60;;
727;SDS011;347;48.780;9.158;2022-08-20T08:40:35;15.27;;;14.67;;
727;SDS011;347;48.780;9.158;2022-08-20T08:43:01;14.53;;;14.03;;
727;SDS011;347;48.780;9.158;2022-08-20T08:45:31;14.80;;;14.20;;
727;SDS011;347;48.780;9.158;2022-08-20T08:48:02;14.67;;;14.07;;
727;SDS011;347;48.780;9.158;2022-08-20T08:50:30;14.73;;;14.13;;
727;SDS011;347;48.780;9.158;2022-08-20T08:52:58;15.10;;;14.50;;
727;SDS011;347;48.780;9.158;2022-08-20T08:55:27;15.37;;;14.77;;
727;SDS011;347;48.780;9.158;2022-08-20T08:57:54;15.67;;;14.37;;
727;SDS011;347;48.780;9.158;2022-08-20T09:00:23;14.80;;;14.13;;
727;SDS011;347;48.780;9.158;2022-08-20T09:02:53;15.10;;;14.40;;
727;SDS011;347;48.780;9.158;2022-08-20T09:05:26;15.17;;;14.57;;
727;SDS011;347;48.780;9.158;2022-08-20T09:07:58;14.60;;;14.10;;
727;SDS011;347;48.780;9.158;2022-08-20T09:10:27;14.60;;;14.03;;
727;SDS011;347;48.780;9.158;2022-08-20T09:12:53;15.10;;;14.50;;
727;SDS011;347;48.780;9.158;2022-08-20T09:15:19;14.87;;;14.07;;
727;SDS011;347;48.780;9.158;2022-08-20T09:17:45;14.37;;;13.67;;
727;SDS011;347;48.780;9.158;2022-08-20T09:20:11;14.40;;;13.80;;
727;SDS011;347;48.780;9.158;2022-08-20T09:22:36;13.70;;;13.20;;
727;SDS011;347;48.780;9.158;2022-08-20T09:25:02;14.47;;;13.97;;
727;SDS011;347;48.780;9.158;2022-08-20T09:27:32;13.90;;;13.40;;
727;SDS011;347;48.780;9.158;2022-08-20T09:29:57;13.83;;;13.23;;
727;SDS011;347;48.780;9.158;2022-08-20T09:32:23;13.90;;;13.40;;
727;SDS011;347;48.780;9.158;2022-08-20T09:34:50;13.10;;;12.60;;
727;SDS011;347;48.780;9.158;2022-08-20T09:37:20;13.50;;;12.90;;
727;SDS011;347;48.780;9.158;2022-08-20T09:39:48;13.60;;;13.10;;
727;SDS011;347;48.780;9.158;2022-08-20T09:42:15;13.27;;;12.77;;
727;SDS011;347;48.780;9.158;2022-08-20T09:44:46;12.57;;;12.17;;
727;SDS011;347;48.780;9.158;2022-08-20T09:47:12;12.53;;;12.00;;
727;SDS011;347;48.780;9.158;2022-08-20T09:49:38;12.93;;;12.40;;
727;SDS011;347;48.780;9.158;2022-08-20T09:52:05;12.60;;;12.10;;
727;SDS011;347;48.780;9.158;2022-08-20T09:54:33;12.10;;;11.70;;
727;SDS011;347;48.780;9.158;2022-08-20T09:57:01;11.80;;;11.40;;
727;SDS011;347;48.780;9.158;2022-08-20T09:59:29;12.20;;;11.80;;
727;SDS011;347;48.780;9.158;2022-08-20T10:01:57;11.67;;;11.23;;
727;SDS011;347;48.780;9.158;2022-08-20T10:04:23;11.83;;;11.33;;
727;SDS011;347;48.780;9.158;2022-08-20T10:06:48;11.40;;;11.00;;
727;SDS011;347;48.780;9.158;2022-08-20T10:09:14;11.37;;;11.07;;
727;SDS011;347;48.780;9.158;2022-08-20T10:11:40;11.90;;;11.50;;
727;SDS011;347;48.780;9.158;2022-08-20T10:14:06;12.40;;;12.00;;
727;SDS011;347;48.780;9.158;2022-08-20T10:16:33;12.40;;;12.00;;
727;SDS011;347;48.780;9.158;2022-08-20T10:18:59;13.27;;;12.10;;
727;SDS011;347;48.780;9.158;2022-08-20T10:21:25;12.33;;;11.83;;
727;SDS011;347;48.780;9.158;2022-08-20T10:23:50;12.63;;;12.23;;
727;SDS011;347;48.780;9.158;2022-08-20T10:26:16;12.80;;;12.30;;
727;SDS011;347;48.780;9.158;2022-08-20T10:28:42;11.90;;;11.40;;
727;SDS011;347;48.780;9.158;2022-08-20T10:31:08;11.20;;;10.90;;
727;SDS011;347;48.780;9.158;2022-08-20T10:33:35;11.40;;;11.00;;
727;SDS011;347;48.780;9.158;2022-08-20T10:36:12;10.90;;;10.60;;
727;SDS011;347;48.780;9.158;2022-08-20T10:38:40;11.60;;;11.30;;
727;SDS011;347;48.780;9.158;2022-08-20T10:41:06;11.80;;;11.40;;
727;SDS011;347;48.780;9.158;2022-08-20T10:43:32;11.30;;;11.00;;
727;SDS011;347;48.780;9.158;2022-08-20T10:45:57;11.17;;;10.87;;
727;SDS011;347;48.780;9.158;2022-08-20T10:48:23;11.80;;;11.50;;
727;SDS011;347;48.780;9.158;2022-08-20T10:50:49;11.40;;;11.10;;
727;SDS011;347;48.780;9.158;2022-08-20T10:53:15;11.07;;;10.77;;
727;SDS011;347;48.780;9.158;2022-08-20T10:55:41;11.20;;;10.87;;
727;SDS011;347;48.780;9.158;2022-08-20T10:58:07;11.47;;;11.07;;
727;SDS011;347;48.780;9.158;2022-08-20T11:00:34;11.60;;;11.20;;
727;SDS011;347;48.780;9.158;2022-08-20T11:03:00;10.80;;;10.50;;
727;SDS011;347;48.780;9.158;2022-08-20T11:05:26;11.60;;;11.20;;
727;SDS011;347;48.780;9.158;2022-08-20T11:07:52;11.00;;;10.70;;
727;SDS011;347;48.780;9.158;2022-08-20T11:10:19;10.80;;;10.50;;
727;SDS011;347;48.780;9.158;2022-08-20T11:12:45;11.50;;;11.10;;
727;SDS011;347;48.780;9.158;2022-08-20T11:15:11;10.60;;;10.30;;
727;SDS011;347;48.780;9.158;2022-08-20T11:17:38;10.83;;;10.53;;
727;SDS011;347;48.780;9.158;2022-08-20T11:20:07;11.17;;;10.87;;
727;SDS011;347;48.780;9.158;2022-08-20T11:22:34;11.13;;;10.73;;
727;SDS011;347;48.780;9.158;2022-08-20T11:25:00;10.17;;;9.87;;
727;SDS011;347;48.780;9.158;2022-08-20T11:27:28;11.63;;;11.20;;
727;SDS011;347;48.780;9.158;2022-08-20T11:29:56;11.10;;;10.80;;
727;SDS011;347;48.780;9.158;2022-08-20T11:32:22;10.50;;;10.20;;
727;SDS011;347;48.780;9.158;2022-08-20T11:34:48;10.90;;;10.60;;
727;SDS011;347;48.780;9.158;2022-08-20T11:37:14;10.70;;;10.40;;
727;SDS011;347;48.780;9.158;2022-08-20T11:39:41;10.70;;;10.40;;
727;SDS011;347;48.780;9.158;2022-08-20T11:42:06;10.47;;;10.17;;
727;SDS011;347;48.780;9.158;2022-08-20T11:44:32;11.03;;;10.63;;
727;SDS011;347;48.780;9.158;2022-08-20T11:47:02;10.40;;;10.10;;
727;SDS011;347;48.780;9.158;2022-08-20T11:49:29;10.70;;;10.40;;
727;SDS011;347;48.780;9.158;2022-08-20T11:51:56;10.60;;;10.30;;
727;SDS011;347;48.780;9.158;2022-08-20T11:54:22;11.00;;;10.70;;
727;SDS011;347;48.780;9.158;2022-08-20T11:56:48;10.87;;;10.57;;
727;SDS011;347;48.780;9.158;2022-08-20T11:59:14;10.93;;;10.63;;
727;SDS011;347;48.780;9.158;2022-08-20T12:01:40;11.40;;;11.00;;
727;SDS011;347;48.780;9.158;2022-08-20T12:04:06;11.00;;;10.60;;
727;SDS011;347;48.780;9.158;2022-08-20T12:06:31;10.23;;;9.93;;
727;SDS011;347;48.780;9.158;2022-08-20T12:08:57;10.37;;;10.07;;
727;SDS011;347;48.780;9.158;2022-08-20T12:11:23;10.87;;;10.47;;
727;SDS011;347;48.780;9.158;2022-08-20T12:13:51;10.93;;;10.53;;
727;SDS011;347;48.780;9.158;2022-08-20T12:16:17;10.93;;;10.53;;
727;SDS011;347;48.780;9.158;2022-08-20T12:18:43;10.77;;;10.40;;
727;SDS011;347;48.780;9.158;2022-08-20T12:21:12;10.80;;;10.30;;
727;SDS011;347;48.780;9.158;2022-08-20T12:23:38;10.47;;;10.17;;
727;SDS011;347;48.780;9.158;2022-08-20T12:26:04;10.27;;;9.97;;
727;SDS011;347;48.780;9.158;2022-08-20T12:28:30;10.60;;;10.30;;
727;SDS011;347;48.780;9.158;2022-08-20T12:30:56;10.50;;;10.20;;
727;SDS011;347;48.780;9.158;2022-08-20T12:33:22;10.80;;;10.40;;
727;SDS011;347;48.780;9.158;2022-08-20T12:35:48;10.50;;;10.20;;
727;SDS011;347;48.780;9.158;2022-08-20T12:38:14;10.73;;;10.17;;
727;SDS011;347;48.780;9.158;2022-08-20T12:40:39;10.90;;;10.60;;
727;SDS011;347;48.780;9.158;2022-08-20T12:43:05;10.57;;;10.27;;
727;SDS011;347;48.780;9.158;2022-08-20T12:45:32;11.23;;;10.83;;
727;SDS011;347;48.780;9.158;2022-08-20T12:48:02;11.20;;;10.90;;
727;SDS011;347;48.780;9.158;2022-08-20T12:50:31;10.40;;;10.10;;
727;SDS011;347;48.780;9.158;2022-08-20T12:52:57;10.43;;;10.13;;
727;SDS011;347;48.780;9.158;2022-08-20T12:55:23;11.40;;;11.10;;
727;SDS011;347;48.780;9.158;2022-08-20T12:57:49;10.80;;;10.50;;
727;SDS011;347;48.780;9.158;2022-08-20T13:00:34;11.60;;;11.10;;
727;SDS011;347;48.780;9.158;2022-08-20T13:03:08;11.10;;;10.70;;
727;SDS011;347;48.780;9.158;2022-08-20T13:05:36;12.20;;;11.70;;
727;SDS011;347;48.780;9.158;2022-08-20T13:08:05;12.17;;;11.77;;
727;SDS011;347;48.780;9.158;2022-08-20T13:10:33;11.57;;;11.17;;
727;SDS011;347;48.780;9.158;2022-08-20T13:13:00;11.67;;;11.27;;
727;SDS011;347;48.780;9.158;2022-08-20T13:15:29;11.33;;;11.03;;
727;SDS011;347;48.780;9.158;2022-08-20T13:17:57;11.80;;;11.30;;
727;SDS011;347;48.780;9.158;2022-08-20T13:20:25;11.07;;;10.67;;
727;SDS011;347;48.780;9.158;2022-08-20T13:22:52;11.37;;;11.07;;
727;SDS011;347;48.780;9.158;2022-08-20T13:25:18;11.53;;;10.93;;
727;SDS011;347;48.780;9.158;2022-08-20T13:27:44;11.87;;;11.37;;
727;SDS011;347;48.780;9.158;2022-08-20T13:30:11;11.63;;;11.13;;
727;SDS011;347;48.780;9.158;2022-08-20T13:32:39;12.27;;;11.77;;
727;SDS011;347;48.780;9.158;2022-08-20T13:35:05;11.60;;;11.20;;
727;SDS011;347;48.780;9.158;2022-08-20T13:37:32;12.33;;;11.93;;
727;SDS011;347;48.780;9.158;2022-08-20T13:39:58;12.20;;;11.70;;
727;SDS011;347;48.780;9.158;2022-08-20T13:42:24;12.77;;;12.10;;
727;SDS011;347;48.780;9.158;2022-08-20T13:44:51;12.27;;;11.77;;
727;SDS011;347;48.780;9.158;2022-08-20T13:47:19;12.27;;;11.67;;
727;SDS011;347;48.780;9.158;2022-08-20T13:49:55;11.20;;;10.80;;
727;SDS011;347;48.780;9.158;2022-08-20T13:52:32;11.97;;;11.57;;
727;SDS011;347;48.780;9.158;2022-08-20T13:54:58;11.97;;;11.57;;
727;SDS011;347;48.780;9.158;2022-08-20T13:57:27;12.00;;;11.40;;
727;SDS011;347;48.780;9.158;2022-08-20T13:59:53;11.60;;;11.10;;
727;SDS011;347;48.780;9.158;2022-08-20T14:02:21;11.80;;;11.40;;
727;SDS011;347;48.780;9.158;2022-08-20T14:04:47;12.00;;;11.60;;
727;SDS011;347;48.780;9.158;2022-08-20T14:07:16;13.00;;;12.40;;
727;SDS011;347;48.780;9.158;2022-08-20T14:09:49;12.70;;;12.10;;
727;SDS011;347;48.780;9.158;2022-08-20T14:12:17;12.17;;;11.27;;
727;SDS011;347;48.780;9.158;2022-08-20T14:14:47;11.80;;;11.40;;
727;SDS011;347;48.780;9.158;2022-08-20T14:17:17;12.20;;;11.70;;
727;SDS011;347;48.780;9.158;2022-08-20T14:19:45;12.47;;;12.07;;
727;SDS011;347;48.780;9.158;2022-08-20T14:22:12;12.60;;;12.10;;
727;SDS011;347;48.780;9.158;2022-08-20T14:24:38;11.50;;;11.10;;
727;SDS011;347;48.780;9.158;2022-08-20T14:27:05;12.10;;;11.70;;
727;SDS011;347;48.780;9.158;2022-08-20T14:29:32;12.03;;;11.50;;
727;SDS011;347;48.780;9.158;2022-08-20T14:32:02;11.90;;;11.50;;
727;SDS011;347;48.780;9.158;2022-08-20T14:34:29;11.50;;;11.00;;
727;SDS011;347;48.780;9.158;2022-08-20T14:36:55;11.60;;;11.30;;
727;SDS011;347;48.780;9.158;2022-08-20T14:39:22;12.10;;;11.60;;
727;SDS011;347;48.780;9.158;2022-08-20T14:41:49;11.37;;;10.97;;
727;SDS011;347;48.780;9.158;2022-08-20T14:44:15;11.87;;;11.30;;
727;SDS011;347;48.780;9.158;2022-08-20T14:46:40;11.87;;;11.37;;
727;SDS011;347;48.780;9.158;2022-08-20T14:49:06;11.27;;;10.97;;
727;SDS011;347;48.780;9.158;2022-08-20T14:51:31;12.37;;;11.77;;
727;SDS011;347;48.780;9.158;2022-08-20T14:53:57;11.90;;;11.30;;
727;SDS011;347;48.780;9.158;2022-08-20T14:56:24;12.33;;;11.83;;
727;SDS011;347;48.780;9.158;2022-08-20T14:58:49;13.17;;;12.67;;
727;SDS011;347;48.780;9.158;2022-08-20T15:01:15;12.30;;;11.90;;
727;SDS011;347;48.780;9.158;2022-08-20T15:03:40;12.20;;;11.80;;
727;SDS011;347;48.780;9.158;2022-08-20T15:06:07;12.73;;;12.23;;
727;SDS011;347;48.780;9.158;2022-08-20T15:08:33;12.73;;;12.33;;
727;SDS011;347;48.780;9.158;2022-08-20T15:10:58;13.03;;;12.53;;
727;SDS011;347;48.780;9.158;2022-08-20T15:13:25;13.37;;;12.73;;
727;SDS011;347;48.780;9.158;2022-08-20T15:15:50;12.37;;;11.97;;
727;SDS011;347;48.780;9.158;2022-08-20T15:18:16;13.23;;;12.63;;
727;SDS011;347;48.780;9.158;2022-08-20T15:20:43;12.20;;;11.73;;
727;SDS011;347;48.780;9.158;2022-08-20T15:23:08;12.20;;;11.80;;
727;SDS011;347;48.780;9.158;2022-08-20T15:25:34;11.27;;;10.97;;
727;SDS011;347;48.780;9.158;2022-08-20T15:28:01;11.80;;;11.40;;